Allure of the Seas — C6XS8 — position and weather

sailwx.info

Track history (hours):
 
Tides and Currents Weather Stations Pressure Air Temp Water Temp Dewpoint Dewpoint Depression Visibility Wind Speed Wind Dir Waves Ship Positions

Allure of the Seas

Last reported at 2019-Nov-19 21:00 UTC. Time now 2019-Nov-20 09:22 UTC.
Position N 23°12' W 083°30'.

; draft 9.3 m.

Type: Passenger vessel. MMSI: 311020700.

Wind from 340 at 18 knots

Barometer 1015.3 mb
Air temperature 26.0 ° C
Visibility: greater than 10.8 NM
Dewpoint 17.2 ° C

Date/timePositionNaut miles runAvg speedWind from/ knotsBaromVisibWave heightAir tempDewpointWater temp
2019-Nov-19 21:00N 23°12' W 083°30'253 6.4 340 / 181015.310.8 26.017.2
2019-Nov-18 05:28N 26°05' W 080°07'0 0.0
2019-Nov-18 04:55N 26°05' W 080°07'0 0.0
2019-Nov-18 03:58N 26°05' W 080°07'0 0.0
2019-Nov-18 03:28N 26°05' W 080°07'0 0.0
2019-Nov-18 01:58N 26°05' W 080°07'0 0.0
2019-Nov-18 00:58N 26°05' W 080°07'0 0.0
2019-Nov-17 23:28N 26°05' W 080°07'0 0.0
2019-Nov-17 22:58N 26°05' W 080°07'0 0.0
2019-Nov-17 21:58N 26°05' W 080°07'0 0.0
2019-Nov-17 19:58N 26°05' W 080°07'0 0.0
2019-Nov-17 17:28N 26°05' W 080°07'0 0.0
2019-Nov-17 16:58N 26°05' W 080°07'5 0.5
2019-Nov-17 07:30N 26°06' W 080°02'24 8.1
2019-Nov-17 04:30N 26°10' W 079°35'4 8.5
2019-Nov-17 04:00N 26°12' W 079°31'4 8.4
2019-Nov-17 03:30N 26°16' W 079°31'56 5.9
2019-Nov-16 18:00N 26°06' W 078°30'82717.3 300 / 201010.010.8 22.012.928.0
2019-Nov-14 18:14N 18°27' W 066°07'9 1.2
2019-Nov-14 10:30N 18°37' W 066°07'52 8.1
2019-Nov-14 04:00N 18°59' W 065°17'19 9.5
2019-Nov-14 02:00N 18°40' W 065°12'24 9.4
2019-Nov-13 23:28N 18°18' W 065°03'6 3.0
2019-Nov-13 21:24N 18°20' W 064°57'0 0.0
2019-Nov-13 20:12N 18°20' W 064°57'0 0.0
2019-Nov-13 18:30N 18°20' W 064°57'0 0.0
2019-Nov-13 17:54N 18°20' W 064°57'0 0.0
2019-Nov-13 16:00N 18°20' W 064°57'0 0.0
2019-Nov-13 14:30N 18°20' W 064°57'0 0.0
2019-Nov-13 14:00N 18°20' W 064°57'0 0.0
2019-Nov-13 12:24N 18°20' W 064°57'0 0.3
2019-Nov-13 11:29N 18°20' W 064°57'14 9.5
2019-Nov-13 10:00N 18°25' W 065°11'714.0
2019-Nov-13 09:31N 18°29' W 065°17'1515.3
2019-Nov-13 08:31N 18°38' W 065°30'2013.0
2019-Nov-13 07:00N 18°48' W 065°48'22016.9 080 / 151012.010.8 27.020.228.0
2019-Nov-12 18:00N 20°54' W 069°00'17716.1 120 / 201012.010.8 29.022.129.0
2019-Nov-12 07:00N 22°36' W 071°36'10715.3 050 / 221012.010.8 27.022.528.0
2019-Nov-12 00:00N 23°36' W 073°12'37415.6 060 / 351014.010.8 27.018.929.0
2019-Nov-11 00:00N 26°06' W 079°30'1516.6 040 / 241018.010.8 25.013.329.0
2019-Nov-10 23:06N 26°08' W 079°46'915.1
2019-Nov-10 22:30N 26°08' W 079°57'10 6.6
2019-Nov-10 20:59N 26°05' W 080°07'0 0.0
2019-Nov-10 18:29N 26°05' W 080°07'0 0.0
2019-Nov-10 15:56N 26°05' W 080°07'19 2.7
2019-Nov-10 09:00N 26°10' W 079°47'  
Track history (hours):
 
Tides and Currents Weather Stations Pressure Air Temp Water Temp Dewpoint Dewpoint Depression Visibility Wind Speed Wind Dir Waves Ship Positions

Allure of the Seas

Last reported at 2019-Nov-19 21:00 UTC. Time now 2019-Nov-20 09:22 UTC.
Position N 23°12' W 083°30'.

; draft 9.3 m.

Type: Passenger vessel. MMSI: 311020700.

Wind from 340 at 18 knots

Barometer 1015.3 mb
Air temperature 26.0 ° C
Visibility: greater than 10.8 NM
Dewpoint 17.2 ° C

Date/timePositionNaut miles runAvg speedWind from/ knotsBaromVisibWave heightAir tempDewpointWater temp
2019-Nov-19 21:00N 23°12' W 083°30'253 6.4 340 / 181015.310.8 26.017.2
2019-Nov-18 05:28N 26°05' W 080°07'0 0.0
2019-Nov-18 04:55N 26°05' W 080°07'0 0.0
2019-Nov-18 03:58N 26°05' W 080°07'0 0.0
2019-Nov-18 03:28N 26°05' W 080°07'0 0.0
2019-Nov-18 01:58N 26°05' W 080°07'0 0.0
2019-Nov-18 00:58N 26°05' W 080°07'0 0.0
2019-Nov-17 23:28N 26°05' W 080°07'0 0.0
2019-Nov-17 22:58N 26°05' W 080°07'0 0.0
2019-Nov-17 21:58N 26°05' W 080°07'0 0.0
2019-Nov-17 19:58N 26°05' W 080°07'0 0.0
2019-Nov-17 17:28N 26°05' W 080°07'0 0.0
2019-Nov-17 16:58N 26°05' W 080°07'5 0.5
2019-Nov-17 07:30N 26°06' W 080°02'24 8.1
2019-Nov-17 04:30N 26°10' W 079°35'4 8.5
2019-Nov-17 04:00N 26°12' W 079°31'4 8.4
2019-Nov-17 03:30N 26°16' W 079°31'56 5.9
2019-Nov-16 18:00N 26°06' W 078°30'82717.3 300 / 201010.010.8 22.012.928.0
2019-Nov-14 18:14N 18°27' W 066°07'9 1.2
2019-Nov-14 10:30N 18°37' W 066°07'52 8.1
2019-Nov-14 04:00N 18°59' W 065°17'19 9.5
2019-Nov-14 02:00N 18°40' W 065°12'24 9.4
2019-Nov-13 23:28N 18°18' W 065°03'6 3.0
2019-Nov-13 21:24N 18°20' W 064°57'0 0.0
2019-Nov-13 20:12N 18°20' W 064°57'0 0.0
2019-Nov-13 18:30N 18°20' W 064°57'0 0.0
2019-Nov-13 17:54N 18°20' W 064°57'0 0.0
2019-Nov-13 16:00N 18°20' W 064°57'0 0.0
2019-Nov-13 14:30N 18°20' W 064°57'0 0.0
2019-Nov-13 14:00N 18°20' W 064°57'0 0.0
2019-Nov-13 12:24N 18°20' W 064°57'0 0.3
2019-Nov-13 11:29N 18°20' W 064°57'14 9.5
2019-Nov-13 10:00N 18°25' W 065°11'714.0
2019-Nov-13 09:31N 18°29' W 065°17'1515.3
2019-Nov-13 08:31N 18°38' W 065°30'2013.0
2019-Nov-13 07:00N 18°48' W 065°48'22016.9 080 / 151012.010.8 27.020.228.0
2019-Nov-12 18:00N 20°54' W 069°00'17716.1 120 / 201012.010.8 29.022.129.0
2019-Nov-12 07:00N 22°36' W 071°36'10715.3 050 / 221012.010.8 27.022.528.0
2019-Nov-12 00:00N 23°36' W 073°12'37415.6 060 / 351014.010.8 27.018.929.0
2019-Nov-11 00:00N 26°06' W 079°30'1516.6 040 / 241018.010.8 25.013.329.0
2019-Nov-10 23:06N 26°08' W 079°46'915.1
2019-Nov-10 22:30N 26°08' W 079°57'10 6.6
2019-Nov-10 20:59N 26°05' W 080°07'0 0.0
2019-Nov-10 18:29N 26°05' W 080°07'0 0.0
2019-Nov-10 15:56N 26°05' W 080°07'19 2.7
2019-Nov-10 09:00N 26°10' W 079°47'  

Dump ship's entire track history